Impacts TAF Board
For situational awareness. Not to be used for flight planning purposes.
IDs:

KFLL - Ft Lauderdale-Hollyw, FL, US

Issued at 2328 UTC 11 Dec 2018
Updated at 0249 UTC 12 Dec 2018
Potential Impact None Slight Moderate High
Time0153Z 12/03Z 12/04Z 12/05Z 12/06Z 12/07Z 12/08Z 12/09Z 12/10Z 12/11Z 12/12Z 12/13Z 12/14Z 12/15Z>>
Type OBS PRVL PRVL PRVL PRVL PRVL PRVL PRVL PRVL PRVL PRVL PRVL PRVL PRVL
VIS 10 >6 >6 >6 >6 >6 >6 >6 >6 >6 >6 >6 >6 >6
CIG -- -- -- -- -- -- -- -- -- -- -- -- -- --
Cover CLR FEW FEW FEW FEW FEW FEW FEW FEW FEW FEW FEW SCT SCT
FltCat VFR VFR VFR VFR VFR VFR VFR VFR VFR VFR VFR VFR VFR VFR
WX -- -- -- -- -- -- -- -- -- -- -- -- -- --
WDir 360 340 340 340 340 340 340 340 340 340 340 340 30 30
WSpd 8 8 8 8 8 8 8 8 8 8 8 8 9 9
WGst -- -- -- -- -- -- -- -- -- -- -- -- -- --
Raw TAF
KFLL 112328Z 1200/1306 34008KT P6SM FEW040
  FM121400 03009KT P6SM SCT035
  FM121700 09012KT P6SM BKN040
  FM122300 08008KT P6SM SCT040


Raw METAR
KFLL 120153Z 36008KT 10SM CLR 12/07 A3026 RMK AO2 SLP246 T01220072
KFLL 120053Z 34008KT 10SM CLR 13/07 A3025 RMK AO2 SLP243 T01280067
KFLL 112353Z 35007KT 10SM FEW040 13/07 A3024 RMK AO2 SLP239 T01330072 10178 20133 53012

METAR Board
Radar Display
Forecast Discussion
For situational awareness. Not to be used for flight planning purposes.